sensor_id;sensor_type;location;lat;lon;timestamp;temperature;humidity
73683;DHT22;72538;48.146;11.740;2023-10-31T00:02:17;10.50;99.90
73683;DHT22;72538;48.146;11.740;2023-10-31T00:04:43;10.50;99.90
73683;DHT22;72538;48.146;11.740;2023-10-31T00:07:08;10.40;99.90
73683;DHT22;72538;48.146;11.740;2023-10-31T00:09:34;10.40;99.90
73683;DHT22;72538;48.146;11.740;2023-10-31T00:12:00;10.30;99.90
73683;DHT22;72538;48.146;11.740;2023-10-31T00:14:26;10.30;99.90
73683;DHT22;72538;48.146;11.740;2023-10-31T00:16:52;10.30;99.90
73683;DHT22;72538;48.146;11.740;2023-10-31T00:19:18;10.20;99.90
73683;DHT22;72538;48.146;11.740;2023-10-31T00:21:44;10.20;99.90
73683;DHT22;72538;48.146;11.740;2023-10-31T00:24:10;10.20;99.90
73683;DHT22;72538;48.146;11.740;2023-10-31T00:26:36;10.10;99.90
73683;DHT22;72538;48.146;11.740;2023-10-31T00:29:02;10.10;99.90
73683;DHT22;72538;48.146;11.740;2023-10-31T00:31:27;10.10;99.90
73683;DHT22;72538;48.146;11.740;2023-10-31T00:33:53;10.00;99.90
73683;DHT22;72538;48.146;11.740;2023-10-31T00:36:19;10.00;99.90
73683;DHT22;72538;48.146;11.740;2023-10-31T00:38:44;10.00;99.90
73683;DHT22;72538;48.146;11.740;2023-10-31T00:41:10;9.90;99.90
73683;DHT22;72538;48.146;11.740;2023-10-31T00:43:36;9.90;99.90
73683;DHT22;72538;48.146;11.740;2023-10-31T00:46:03;9.90;99.90
73683;DHT22;72538;48.146;11.740;2023-10-31T00:48:29;9.80;99.90
73683;DHT22;72538;48.146;11.740;2023-10-31T00:50:55;9.80;99.90
73683;DHT22;72538;48.146;11.740;2023-10-31T00:53:20;9.80;99.90
73683;DHT22;72538;48.146;11.740;2023-10-31T00:55:46;9.70;99.90
73683;DHT22;72538;48.146;11.740;2023-10-31T00:58:12;9.70;99.90
73683;DHT22;72538;48.146;11.740;2023-10-31T01:00:38;9.70;99.90
73683;DHT22;72538;48.146;11.740;2023-10-31T01:03:03;9.70;99.90
73683;DHT22;72538;48.146;11.740;2023-10-31T01:05:29;9.70;99.90
73683;DHT22;72538;48.146;11.740;2023-10-31T01:07:55;9.70;99.90
73683;DHT22;72538;48.146;11.740;2023-10-31T01:10:21;9.70;99.90
73683;DHT22;72538;48.146;11.740;2023-10-31T01:12:47;9.70;99.90
73683;DHT22;72538;48.146;11.740;2023-10-31T01:15:12;9.70;99.90
73683;DHT22;72538;48.146;11.740;2023-10-31T01:17:38;9.70;99.90
73683;DHT22;72538;48.146;11.740;2023-10-31T01:20:05;9.60;99.90
73683;DHT22;72538;48.146;11.740;2023-10-31T01:22:31;9.60;99.90
73683;DHT22;72538;48.146;11.740;2023-10-31T01:24:57;9.60;99.90
73683;DHT22;72538;48.146;11.740;2023-10-31T01:27:23;9.60;99.90
73683;DHT22;72538;48.146;11.740;2023-10-31T01:29:49;9.70;99.90
73683;DHT22;72538;48.146;11.740;2023-10-31T01:32:14;9.70;99.90
73683;DHT22;72538;48.146;11.740;2023-10-31T01:34:40;9.70;99.90
73683;DHT22;72538;48.146;11.740;2023-10-31T01:37:06;9.70;99.90
73683;DHT22;72538;48.146;11.740;2023-10-31T01:39:32;9.60;99.90
73683;DHT22;72538;48.146;11.740;2023-10-31T01:41:57;9.60;99.90
73683;DHT22;72538;48.146;11.740;2023-10-31T01:44:23;9.60;99.90
73683;DHT22;72538;48.146;11.740;2023-10-31T01:46:49;9.70;99.90
73683;DHT22;72538;48.146;11.740;2023-10-31T01:49:15;9.70;99.90
73683;DHT22;72538;48.146;11.740;2023-10-31T01:51:41;9.70;99.90
73683;DHT22;72538;48.146;11.740;2023-10-31T01:54:09;9.70;99.90
73683;DHT22;72538;48.146;11.740;2023-10-31T01:56:35;9.70;99.90
73683;DHT22;72538;48.146;11.740;2023-10-31T01:59:03;9.70;99.90
73683;DHT22;72538;48.146;11.740;2023-10-31T02:01:30;9.70;99.90
73683;DHT22;72538;48.146;11.740;2023-10-31T02:03:56;9.70;99.90
73683;DHT22;72538;48.146;11.740;2023-10-31T02:06:24;9.70;99.90
73683;DHT22;72538;48.146;11.740;2023-10-31T02:08:50;9.70;99.90
73683;DHT22;72538;48.146;11.740;2023-10-31T02:11:15;9.70;99.90
73683;DHT22;72538;48.146;11.740;2023-10-31T02:13:41;9.70;99.90
73683;DHT22;72538;48.146;11.740;2023-10-31T02:16:07;9.60;99.90
73683;DHT22;72538;48.146;11.740;2023-10-31T02:18:33;9.60;99.90
73683;DHT22;72538;48.146;11.740;2023-10-31T02:20:59;9.60;99.90
73683;DHT22;72538;48.146;11.740;2023-10-31T02:23:25;9.60;99.90
73683;DHT22;72538;48.146;11.740;2023-10-31T02:25:51;9.60;99.90
73683;DHT22;72538;48.146;11.740;2023-10-31T02:28:16;9.50;99.90
73683;DHT22;72538;48.146;11.740;2023-10-31T02:30:43;9.50;99.90
73683;DHT22;72538;48.146;11.740;2023-10-31T02:33:09;9.50;99.90
73683;DHT22;72538;48.146;11.740;2023-10-31T02:35:34;9.50;99.90
73683;DHT22;72538;48.146;11.740;2023-10-31T02:38:00;9.50;99.90
73683;DHT22;72538;48.146;11.740;2023-10-31T02:40:26;9.50;99.90
73683;DHT22;72538;48.146;11.740;2023-10-31T02:42:52;9.50;99.90
73683;DHT22;72538;48.146;11.740;2023-10-31T02:45:18;9.50;99.90
73683;DHT22;72538;48.146;11.740;2023-10-31T02:47:44;9.40;99.90
73683;DHT22;72538;48.146;11.740;2023-10-31T02:50:10;9.40;99.90
73683;DHT22;72538;48.146;11.740;2023-10-31T02:52:35;9.40;99.90
73683;DHT22;72538;48.146;11.740;2023-10-31T02:55:02;9.40;99.90
73683;DHT22;72538;48.146;11.740;2023-10-31T02:57:27;9.30;99.90
73683;DHT22;72538;48.146;11.740;2023-10-31T02:59:53;9.30;99.90
73683;DHT22;72538;48.146;11.740;2023-10-31T03:02:19;9.30;99.90
73683;DHT22;72538;48.146;11.740;2023-10-31T03:04:44;9.30;99.90
73683;DHT22;72538;48.146;11.740;2023-10-31T03:07:10;9.30;99.90
73683;DHT22;72538;48.146;11.740;2023-10-31T03:09:36;9.30;99.90
73683;DHT22;72538;48.146;11.740;2023-10-31T03:12:02;9.30;99.90
73683;DHT22;72538;48.146;11.740;2023-10-31T03:14:28;9.30;99.90
73683;DHT22;72538;48.146;11.740;2023-10-31T03:16:54;9.30;99.90
73683;DHT22;72538;48.146;11.740;2023-10-31T03:19:19;9.30;99.90
73683;DHT22;72538;48.146;11.740;2023-10-31T03:21:45;9.30;99.90
73683;DHT22;72538;48.146;11.740;2023-10-31T03:24:11;9.30;99.90
73683;DHT22;72538;48.146;11.740;2023-10-31T03:26:36;9.30;99.90
73683;DHT22;72538;48.146;11.740;2023-10-31T03:29:02;9.20;99.90
73683;DHT22;72538;48.146;11.740;2023-10-31T03:31:28;9.20;99.90
73683;DHT22;72538;48.146;11.740;2023-10-31T03:33:54;9.20;99.90
73683;DHT22;72538;48.146;11.740;2023-10-31T03:36:20;9.20;99.90
73683;DHT22;72538;48.146;11.740;2023-10-31T03:38:46;9.20;99.90
73683;DHT22;72538;48.146;11.740;2023-10-31T03:41:12;9.20;99.90
73683;DHT22;72538;48.146;11.740;2023-10-31T03:43:39;9.10;99.90
73683;DHT22;72538;48.146;11.740;2023-10-31T03:46:04;9.10;99.90
73683;DHT22;72538;48.146;11.740;2023-10-31T03:48:30;9.10;99.90
73683;DHT22;72538;48.146;11.740;2023-10-31T03:50:56;9.10;99.90
73683;DHT22;72538;48.146;11.740;2023-10-31T03:53:22;9.20;99.90
73683;DHT22;72538;48.146;11.740;2023-10-31T03:55:48;9.20;99.90
73683;DHT22;72538;48.146;11.740;2023-10-31T03:58:14;9.10;99.90
73683;DHT22;72538;48.146;11.740;2023-10-31T04:00:39;9.20;99.90
73683;DHT22;72538;48.146;11.740;2023-10-31T04:03:07;9.10;99.90
73683;DHT22;72538;48.146;11.740;2023-10-31T04:05:34;9.10;99.90
73683;DHT22;72538;48.146;11.740;2023-10-31T04:07:59;9.20;99.90
73683;DHT22;72538;48.146;11.740;2023-10-31T04:10:26;9.20;99.90
73683;DHT22;72538;48.146;11.740;2023-10-31T04:12:52;9.20;99.90
73683;DHT22;72538;48.146;11.740;2023-10-31T04:15:18;9.20;99.90
73683;DHT22;72538;48.146;11.740;2023-10-31T04:17:43;9.20;99.90
73683;DHT22;72538;48.146;11.740;2023-10-31T04:20:10;9.20;99.90
73683;DHT22;72538;48.146;11.740;2023-10-31T04:22:36;9.20;99.90
73683;DHT22;72538;48.146;11.740;2023-10-31T04:25:03;9.20;99.90
73683;DHT22;72538;48.146;11.740;2023-10-31T04:27:29;9.10;99.90
73683;DHT22;72538;48.146;11.740;2023-10-31T04:29:54;9.10;99.90
73683;DHT22;72538;48.146;11.740;2023-10-31T04:32:20;9.10;99.90
73683;DHT22;72538;48.146;11.740;2023-10-31T04:34:46;9.20;99.90
73683;DHT22;72538;48.146;11.740;2023-10-31T04:37:12;9.10;99.90
73683;DHT22;72538;48.146;11.740;2023-10-31T04:39:37;9.20;99.90
73683;DHT22;72538;48.146;11.740;2023-10-31T04:42:03;9.10;99.90
73683;DHT22;72538;48.146;11.740;2023-10-31T04:44:29;9.20;99.90
73683;DHT22;72538;48.146;11.740;2023-10-31T04:46:55;9.20;99.90
73683;DHT22;72538;48.146;11.740;2023-10-31T04:49:21;9.10;99.90
73683;DHT22;72538;48.146;11.740;2023-10-31T04:51:48;9.20;99.90
73683;DHT22;72538;48.146;11.740;2023-10-31T04:54:14;9.10;99.90
73683;DHT22;72538;48.146;11.740;2023-10-31T04:56:39;9.20;99.90
73683;DHT22;72538;48.146;11.740;2023-10-31T04:59:05;9.10;99.90
73683;DHT22;72538;48.146;11.740;2023-10-31T05:01:31;9.20;99.90
73683;DHT22;72538;48.146;11.740;2023-10-31T05:03:57;9.10;99.90
73683;DHT22;72538;48.146;11.740;2023-10-31T05:06:23;9.10;99.90
73683;DHT22;72538;48.146;11.740;2023-10-31T05:08:49;9.10;99.90
73683;DHT22;72538;48.146;11.740;2023-10-31T05:11:18;9.10;99.90
73683;DHT22;72538;48.146;11.740;2023-10-31T05:13:45;9.10;99.90
73683;DHT22;72538;48.146;11.740;2023-10-31T05:16:11;9.10;99.90
73683;DHT22;72538;48.146;11.740;2023-10-31T05:18:38;9.00;99.90
73683;DHT22;72538;48.146;11.740;2023-10-31T05:21:04;9.00;99.90
73683;DHT22;72538;48.146;11.740;2023-10-31T05:23:30;9.00;99.90
73683;DHT22;72538;48.146;11.740;2023-10-31T05:25:56;9.00;99.90
73683;DHT22;72538;48.146;11.740;2023-10-31T05:28:22;8.90;99.90
73683;DHT22;72538;48.146;11.740;2023-10-31T05:30:49;8.90;99.90
73683;DHT22;72538;48.146;11.740;2023-10-31T05:33:15;8.90;99.90
73683;DHT22;72538;48.146;11.740;2023-10-31T05:35:42;8.90;99.90
73683;DHT22;72538;48.146;11.740;2023-10-31T05:38:08;8.90;99.90
73683;DHT22;72538;48.146;11.740;2023-10-31T05:40:34;8.90;99.90
73683;DHT22;72538;48.146;11.740;2023-10-31T05:43:03;8.90;99.90
73683;DHT22;72538;48.146;11.740;2023-10-31T05:45:30;8.90;99.90
73683;DHT22;72538;48.146;11.740;2023-10-31T05:47:56;9.00;99.90
73683;DHT22;72538;48.146;11.740;2023-10-31T05:50:22;9.00;99.90
73683;DHT22;72538;48.146;11.740;2023-10-31T05:52:48;9.00;99.90
73683;DHT22;72538;48.146;11.740;2023-10-31T05:55:13;9.00;99.90
73683;DHT22;72538;48.146;11.740;2023-10-31T05:57:39;8.90;99.90
73683;DHT22;72538;48.146;11.740;2023-10-31T06:00:06;8.90;99.90
73683;DHT22;72538;48.146;11.740;2023-10-31T06:02:33;8.90;99.90
73683;DHT22;72538;48.146;11.740;2023-10-31T06:04:58;8.90;99.90
73683;DHT22;72538;48.146;11.740;2023-10-31T06:07:24;8.90;99.90
73683;DHT22;72538;48.146;11.740;2023-10-31T06:09:50;8.90;99.90
73683;DHT22;72538;48.146;11.740;2023-10-31T06:12:16;8.90;99.90
73683;DHT22;72538;48.146;11.740;2023-10-31T06:14:42;9.00;99.90
73683;DHT22;72538;48.146;11.740;2023-10-31T06:17:07;9.00;99.90
73683;DHT22;72538;48.146;11.740;2023-10-31T06:19:35;9.00;99.90
73683;DHT22;72538;48.146;11.740;2023-10-31T06:22:01;9.00;99.90
73683;DHT22;72538;48.146;11.740;2023-10-31T06:24:27;9.00;99.90
73683;DHT22;72538;48.146;11.740;2023-10-31T06:26:53;9.00;99.90
73683;DHT22;72538;48.146;11.740;2023-10-31T06:29:18;9.10;99.90
73683;DHT22;72538;48.146;11.740;2023-10-31T06:31:44;9.20;99.90
73683;DHT22;72538;48.146;11.740;2023-10-31T06:34:10;9.20;99.90
73683;DHT22;72538;48.146;11.740;2023-10-31T06:36:36;9.20;99.90
73683;DHT22;72538;48.146;11.740;2023-10-31T06:39:01;9.30;99.90
73683;DHT22;72538;48.146;11.740;2023-10-31T06:41:28;9.30;99.90
73683;DHT22;72538;48.146;11.740;2023-10-31T06:43:54;9.30;99.90
73683;DHT22;72538;48.146;11.740;2023-10-31T06:46:19;9.30;99.90
73683;DHT22;72538;48.146;11.740;2023-10-31T06:48:45;9.30;99.90
73683;DHT22;72538;48.146;11.740;2023-10-31T06:51:11;9.30;99.90
73683;DHT22;72538;48.146;11.740;2023-10-31T06:53:37;9.30;99.90
73683;DHT22;72538;48.146;11.740;2023-10-31T06:56:03;9.40;99.90
73683;DHT22;72538;48.146;11.740;2023-10-31T06:58:29;9.40;99.90
73683;DHT22;72538;48.146;11.740;2023-10-31T07:00:55;9.30;99.90
73683;DHT22;72538;48.146;11.740;2023-10-31T07:03:22;9.30;99.90
73683;DHT22;72538;48.146;11.740;2023-10-31T07:05:48;9.30;99.90
73683;DHT22;72538;48.146;11.740;2023-10-31T07:08:14;9.30;99.90
73683;DHT22;72538;48.146;11.740;2023-10-31T07:10:40;9.30;99.90
73683;DHT22;72538;48.146;11.740;2023-10-31T07:13:05;9.40;99.90
73683;DHT22;72538;48.146;11.740;2023-10-31T07:15:31;9.30;99.90
73683;DHT22;72538;48.146;11.740;2023-10-31T07:17:57;9.30;99.90
73683;DHT22;72538;48.146;11.740;2023-10-31T07:20:23;9.30;99.90
73683;DHT22;72538;48.146;11.740;2023-10-31T07:22:48;9.30;99.90
73683;DHT22;72538;48.146;11.740;2023-10-31T07:25:14;9.30;99.90
73683;DHT22;72538;48.146;11.740;2023-10-31T07:27:40;9.30;99.90
73683;DHT22;72538;48.146;11.740;2023-10-31T07:30:07;9.30;99.90
73683;DHT22;72538;48.146;11.740;2023-10-31T07:32:33;9.30;99.90
73683;DHT22;72538;48.146;11.740;2023-10-31T07:34:59;9.40;99.90
73683;DHT22;72538;48.146;11.740;2023-10-31T07:37:24;9.40;99.90
73683;DHT22;72538;48.146;11.740;2023-10-31T07:39:50;9.50;99.90
73683;DHT22;72538;48.146;11.740;2023-10-31T07:42:18;9.60;99.90
73683;DHT22;72538;48.146;11.740;2023-10-31T07:44:45;9.60;99.90
73683;DHT22;72538;48.146;11.740;2023-10-31T07:47:10;9.60;99.90
73683;DHT22;72538;48.146;11.740;2023-10-31T07:49:36;9.70;99.90
73683;DHT22;72538;48.146;11.740;2023-10-31T07:52:02;9.80;99.90
73683;DHT22;72538;48.146;11.740;2023-10-31T07:54:28;9.70;99.90
73683;DHT22;72538;48.146;11.740;2023-10-31T07:56:53;9.80;99.90
73683;DHT22;72538;48.146;11.740;2023-10-31T07:59:20;9.80;99.90
73683;DHT22;72538;48.146;11.740;2023-10-31T08:01:46;9.80;99.90
73683;DHT22;72538;48.146;11.740;2023-10-31T08:04:13;9.90;99.90
73683;DHT22;72538;48.146;11.740;2023-10-31T08:06:40;9.90;99.90
73683;DHT22;72538;48.146;11.740;2023-10-31T08:09:06;9.90;99.90
73683;DHT22;72538;48.146;11.740;2023-10-31T08:11:32;10.00;99.90
73683;DHT22;72538;48.146;11.740;2023-10-31T08:13:59;10.00;99.90
73683;DHT22;72538;48.146;11.740;2023-10-31T08:16:26;10.00;99.90
73683;DHT22;72538;48.146;11.740;2023-10-31T08:18:51;10.00;99.90
73683;DHT22;72538;48.146;11.740;2023-10-31T08:21:18;10.00;99.90
73683;DHT22;72538;48.146;11.740;2023-10-31T08:23:43;10.00;99.90
73683;DHT22;72538;48.146;11.740;2023-10-31T08:26:12;10.00;99.90
73683;DHT22;72538;48.146;11.740;2023-10-31T08:28:38;10.00;99.90
73683;DHT22;72538;48.146;11.740;2023-10-31T08:31:05;10.00;99.90
73683;DHT22;72538;48.146;11.740;2023-10-31T08:33:30;10.00;99.90
73683;DHT22;72538;48.146;11.740;2023-10-31T08:35:56;9.90;99.90
73683;DHT22;72538;48.146;11.740;2023-10-31T08:38:22;9.90;99.90
73683;DHT22;72538;48.146;11.740;2023-10-31T08:40:48;9.90;99.90
73683;DHT22;72538;48.146;11.740;2023-10-31T08:43:14;9.90;99.90
73683;DHT22;72538;48.146;11.740;2023-10-31T08:45:40;9.90;99.90
73683;DHT22;72538;48.146;11.740;2023-10-31T08:48:06;9.80;99.90
73683;DHT22;72538;48.146;11.740;2023-10-31T08:50:31;9.80;99.90
73683;DHT22;72538;48.146;11.740;2023-10-31T08:52:57;9.90;99.90
73683;DHT22;72538;48.146;11.740;2023-10-31T08:55:23;9.80;99.90
73683;DHT22;72538;48.146;11.740;2023-10-31T08:57:49;9.80;99.90
73683;DHT22;72538;48.146;11.740;2023-10-31T09:00:15;9.90;99.90
73683;DHT22;72538;48.146;11.740;2023-10-31T09:02:41;9.90;99.90
73683;DHT22;72538;48.146;11.740;2023-10-31T09:05:08;9.90;99.90
73683;DHT22;72538;48.146;11.740;2023-10-31T09:07:34;10.00;99.90
73683;DHT22;72538;48.146;11.740;2023-10-31T09:10:00;10.00;99.90
73683;DHT22;72538;48.146;11.740;2023-10-31T09:12:25;10.10;99.90
73683;DHT22;72538;48.146;11.740;2023-10-31T09:14:52;10.00;99.90
73683;DHT22;72538;48.146;11.740;2023-10-31T09:17:17;10.10;99.90
73683;DHT22;72538;48.146;11.740;2023-10-31T09:19:44;10.00;99.90
73683;DHT22;72538;48.146;11.740;2023-10-31T09:22:09;10.10;99.90
73683;DHT22;72538;48.146;11.740;2023-10-31T09:24:35;10.10;99.90
73683;DHT22;72538;48.146;11.740;2023-10-31T09:27:01;10.20;99.90
73683;DHT22;72538;48.146;11.740;2023-10-31T09:29:27;10.10;99.90
73683;DHT22;72538;48.146;11.740;2023-10-31T09:31:53;10.20;99.90
73683;DHT22;72538;48.146;11.740;2023-10-31T09:34:18;10.20;99.90
73683;DHT22;72538;48.146;11.740;2023-10-31T09:36:44;10.20;99.90
73683;DHT22;72538;48.146;11.740;2023-10-31T09:39:10;10.20;99.90
73683;DHT22;72538;48.146;11.740;2023-10-31T09:41:36;10.20;99.90
73683;DHT22;72538;48.146;11.740;2023-10-31T09:44:02;10.20;99.90
73683;DHT22;72538;48.146;11.740;2023-10-31T09:46:28;10.30;99.90
73683;DHT22;72538;48.146;11.740;2023-10-31T09:48:55;10.30;99.90
73683;DHT22;72538;48.146;11.740;2023-10-31T09:51:21;10.30;99.90
73683;DHT22;72538;48.146;11.740;2023-10-31T09:53:47;10.30;99.90
73683;DHT22;72538;48.146;11.740;2023-10-31T09:56:14;10.30;99.90
73683;DHT22;72538;48.146;11.740;2023-10-31T09:58:40;10.40;99.90
73683;DHT22;72538;48.146;11.740;2023-10-31T10:01:08;10.40;99.90
73683;DHT22;72538;48.146;11.740;2023-10-31T10:03:34;10.50;99.90
73683;DHT22;72538;48.146;11.740;2023-10-31T10:06:02;10.50;99.90
73683;DHT22;72538;48.146;11.740;2023-10-31T10:08:27;10.50;99.90
73683;DHT22;72538;48.146;11.740;2023-10-31T10:10:54;10.60;99.90
73683;DHT22;72538;48.146;11.740;2023-10-31T10:13:21;10.60;99.90
73683;DHT22;72538;48.146;11.740;2023-10-31T10:15:48;10.70;99.90
73683;DHT22;72538;48.146;11.740;2023-10-31T10:18:31;10.70;99.90
73683;DHT22;72538;48.146;11.740;2023-10-31T10:21:04;10.70;99.90
73683;DHT22;72538;48.146;11.740;2023-10-31T10:23:27;10.70;99.90
73683;DHT22;72538;48.146;11.740;2023-10-31T10:25:55;10.80;99.90
73683;DHT22;72538;48.146;11.740;2023-10-31T10:28:21;10.80;99.90
73683;DHT22;72538;48.146;11.740;2023-10-31T10:30:48;10.80;99.90
73683;DHT22;72538;48.146;11.740;2023-10-31T10:33:15;10.90;99.90
73683;DHT22;72538;48.146;11.740;2023-10-31T10:35:41;10.90;99.90
73683;DHT22;72538;48.146;11.740;2023-10-31T10:38:16;10.90;99.90
73683;DHT22;72538;48.146;11.740;2023-10-31T10:40:44;10.80;99.90
73683;DHT22;72538;48.146;11.740;2023-10-31T10:45:46;10.90;99.90
73683;DHT22;72538;48.146;11.740;2023-10-31T10:48:15;11.00;99.90
73683;DHT22;72538;48.146;11.740;2023-10-31T10:50:45;11.00;99.90
73683;DHT22;72538;48.146;11.740;2023-10-31T10:53:22;11.10;99.90
73683;DHT22;72538;48.146;11.740;2023-10-31T10:55:51;11.10;99.90
73683;DHT22;72538;48.146;11.740;2023-10-31T10:58:39;11.10;99.90
73683;DHT22;72538;48.146;11.740;2023-10-31T11:01:04;11.00;99.90
73683;DHT22;72538;48.146;11.740;2023-10-31T11:03:31;11.00;99.90
73683;DHT22;72538;48.146;11.740;2023-10-31T11:06:00;11.10;99.90
73683;DHT22;72538;48.146;11.740;2023-10-31T11:08:27;11.10;99.90
73683;DHT22;72538;48.146;11.740;2023-10-31T11:10:55;11.20;99.90
73683;DHT22;72538;48.146;11.740;2023-10-31T11:13:22;11.20;99.90
73683;DHT22;72538;48.146;11.740;2023-10-31T11:15:51;11.20;99.90
73683;DHT22;72538;48.146;11.740;2023-10-31T11:18:18;11.30;99.90
73683;DHT22;72538;48.146;11.740;2023-10-31T11:20:44;11.40;99.90
73683;DHT22;72538;48.146;11.740;2023-10-31T11:23:10;11.50;99.90
73683;DHT22;72538;48.146;11.740;2023-10-31T11:25:41;11.60;99.90
73683;DHT22;72538;48.146;11.740;2023-10-31T11:28:15;11.70;99.90
73683;DHT22;72538;48.146;11.740;2023-10-31T11:30:43;11.90;99.90
73683;DHT22;72538;48.146;11.740;2023-10-31T11:33:13;11.90;99.90
73683;DHT22;72538;48.146;11.740;2023-10-31T11:35:40;11.90;99.90
73683;DHT22;72538;48.146;11.740;2023-10-31T11:38:10;11.90;99.90
73683;DHT22;72538;48.146;11.740;2023-10-31T11:43:10;12.00;99.90
73683;DHT22;72538;48.146;11.740;2023-10-31T11:45:42;12.10;99.90
73683;DHT22;72538;48.146;11.740;2023-10-31T11:48:10;12.20;99.90
73683;DHT22;72538;48.146;11.740;2023-10-31T11:50:37;12.20;99.90
73683;DHT22;72538;48.146;11.740;2023-10-31T11:55:44;12.20;99.90
73683;DHT22;72538;48.146;11.740;2023-10-31T12:00:47;12.20;99.90
73683;DHT22;72538;48.146;11.740;2023-10-31T12:03:19;12.20;99.90
73683;DHT22;72538;48.146;11.740;2023-10-31T12:05:53;12.20;99.90
73683;DHT22;72538;48.146;11.740;2023-10-31T12:08:30;12.30;99.90
73683;DHT22;72538;48.146;11.740;2023-10-31T12:11:07;12.40;99.90
73683;DHT22;72538;48.146;11.740;2023-10-31T12:13:30;12.50;99.90
73683;DHT22;72538;48.146;11.740;2023-10-31T12:15:56;12.70;99.90
73683;DHT22;72538;48.146;11.740;2023-10-31T12:18:22;12.70;99.90
73683;DHT22;72538;48.146;11.740;2023-10-31T12:20:49;12.70;99.90
73683;DHT22;72538;48.146;11.740;2023-10-31T12:23:17;12.70;99.90
73683;DHT22;72538;48.146;11.740;2023-10-31T12:25:47;12.60;99.90
73683;DHT22;72538;48.146;11.740;2023-10-31T12:28:19;12.70;99.90
73683;DHT22;72538;48.146;11.740;2023-10-31T12:30:46;12.80;99.90
73683;DHT22;72538;48.146;11.740;2023-10-31T12:33:12;12.80;99.90
73683;DHT22;72538;48.146;11.740;2023-10-31T12:35:38;12.90;99.90
73683;DHT22;72538;48.146;11.740;2023-10-31T12:38:06;12.80;99.90
73683;DHT22;72538;48.146;11.740;2023-10-31T12:40:33;12.70;99.90
73683;DHT22;72538;48.146;11.740;2023-10-31T12:42:59;12.60;99.90
73683;DHT22;72538;48.146;11.740;2023-10-31T12:45:27;12.30;99.90
73683;DHT22;72538;48.146;11.740;2023-10-31T12:48:03;12.30;99.90
73683;DHT22;72538;48.146;11.740;2023-10-31T12:50:32;12.20;99.90
73683;DHT22;72538;48.146;11.740;2023-10-31T12:52:58;12.30;99.90
73683;DHT22;72538;48.146;11.740;2023-10-31T12:55:27;12.20;99.90
73683;DHT22;72538;48.146;11.740;2023-10-31T12:57:54;12.20;99.90
73683;DHT22;72538;48.146;11.740;2023-10-31T13:00:22;12.20;99.90
73683;DHT22;72538;48.146;11.740;2023-10-31T13:02:52;12.30;99.90
73683;DHT22;72538;48.146;11.740;2023-10-31T13:05:19;12.40;99.90
73683;DHT22;72538;48.146;11.740;2023-10-31T13:07:48;12.60;99.90
73683;DHT22;72538;48.146;11.740;2023-10-31T13:10:19;12.70;99.90
73683;DHT22;72538;48.146;11.740;2023-10-31T13:12:46;12.60;99.90
73683;DHT22;72538;48.146;11.740;2023-10-31T13:15:16;12.60;99.90
73683;DHT22;72538;48.146;11.740;2023-10-31T13:17:44;12.50;99.90
73683;DHT22;72538;48.146;11.740;2023-10-31T13:20:11;12.40;99.90
73683;DHT22;72538;48.146;11.740;2023-10-31T13:22:37;12.20;99.90
73683;DHT22;72538;48.146;11.740;2023-10-31T13:25:04;12.00;99.90
73683;DHT22;72538;48.146;11.740;2023-10-31T13:27:36;11.90;99.90
73683;DHT22;72538;48.146;11.740;2023-10-31T13:30:03;11.80;99.90
73683;DHT22;72538;48.146;11.740;2023-10-31T13:32:30;11.80;99.90
73683;DHT22;72538;48.146;11.740;2023-10-31T13:34:55;11.80;99.90
73683;DHT22;72538;48.146;11.740;2023-10-31T13:37:21;11.70;99.90
73683;DHT22;72538;48.146;11.740;2023-10-31T13:39:47;11.70;99.90
73683;DHT22;72538;48.146;11.740;2023-10-31T13:42:13;11.70;99.90
73683;DHT22;72538;48.146;11.740;2023-10-31T13:44:43;11.60;99.90
73683;DHT22;72538;48.146;11.740;2023-10-31T13:47:09;11.60;99.90
73683;DHT22;72538;48.146;11.740;2023-10-31T13:49:36;11.40;99.90
73683;DHT22;72538;48.146;11.740;2023-10-31T13:52:04;11.40;99.90
73683;DHT22;72538;48.146;11.740;2023-10-31T13:54:32;11.30;99.90
73683;DHT22;72538;48.146;11.740;2023-10-31T13:56:59;11.20;99.90
73683;DHT22;72538;48.146;11.740;2023-10-31T13:59:25;11.10;99.90
73683;DHT22;72538;48.146;11.740;2023-10-31T14:01:51;11.00;99.90
73683;DHT22;72538;48.146;11.740;2023-10-31T14:04:18;11.00;99.90
73683;DHT22;72538;48.146;11.740;2023-10-31T14:06:44;11.10;99.90
73683;DHT22;72538;48.146;11.740;2023-10-31T14:09:11;11.10;99.90
73683;DHT22;72538;48.146;11.740;2023-10-31T14:11:38;11.10;99.90
73683;DHT22;72538;48.146;11.740;2023-10-31T14:14:05;11.20;99.90
73683;DHT22;72538;48.146;11.740;2023-10-31T14:16:39;11.20;99.90
73683;DHT22;72538;48.146;11.740;2023-10-31T14:19:06;11.30;99.90
73683;DHT22;72538;48.146;11.740;2023-10-31T14:21:33;11.30;99.90
73683;DHT22;72538;48.146;11.740;2023-10-31T14:24:02;11.40;99.90
73683;DHT22;72538;48.146;11.740;2023-10-31T14:26:30;11.40;99.90
73683;DHT22;72538;48.146;11.740;2023-10-31T14:28:56;11.50;99.90
73683;DHT22;72538;48.146;11.740;2023-10-31T14:31:22;11.40;99.90
73683;DHT22;72538;48.146;11.740;2023-10-31T14:33:48;11.40;99.90
73683;DHT22;72538;48.146;11.740;2023-10-31T14:36:13;11.40;99.90
73683;DHT22;72538;48.146;11.740;2023-10-31T14:38:40;11.40;99.90
73683;DHT22;72538;48.146;11.740;2023-10-31T14:41:07;11.30;99.90
73683;DHT22;72538;48.146;11.740;2023-10-31T14:43:34;11.20;99.90
73683;DHT22;72538;48.146;11.740;2023-10-31T14:46:00;11.10;99.90
73683;DHT22;72538;48.146;11.740;2023-10-31T14:48:26;11.10;99.90
73683;DHT22;72538;48.146;11.740;2023-10-31T14:50:52;11.00;99.90
73683;DHT22;72538;48.146;11.740;2023-10-31T14:53:18;11.00;99.90
73683;DHT22;72538;48.146;11.740;2023-10-31T14:55:47;11.00;99.90
73683;DHT22;72538;48.146;11.740;2023-10-31T14:58:13;10.90;99.90
73683;DHT22;72538;48.146;11.740;2023-10-31T15:00:39;10.90;99.90
73683;DHT22;72538;48.146;11.740;2023-10-31T15:03:05;10.80;99.90
73683;DHT22;72538;48.146;11.740;2023-10-31T15:05:31;10.80;99.90
73683;DHT22;72538;48.146;11.740;2023-10-31T15:07:58;10.80;99.90
73683;DHT22;72538;48.146;11.740;2023-10-31T15:10:24;10.70;99.90
73683;DHT22;72538;48.146;11.740;2023-10-31T15:12:51;10.70;99.90
73683;DHT22;72538;48.146;11.740;2023-10-31T15:15:18;10.70;99.90
73683;DHT22;72538;48.146;11.740;2023-10-31T15:17:44;10.70;99.90
73683;DHT22;72538;48.146;11.740;2023-10-31T15:20:11;10.70;99.90
73683;DHT22;72538;48.146;11.740;2023-10-31T15:22:41;10.60;99.90
73683;DHT22;72538;48.146;11.740;2023-10-31T15:25:09;10.60;99.90
73683;DHT22;72538;48.146;11.740;2023-10-31T15:27:35;10.60;99.90
73683;DHT22;72538;48.146;11.740;2023-10-31T15:30:01;10.50;99.90
73683;DHT22;72538;48.146;11.740;2023-10-31T15:32:26;10.50;99.90